Time;durP1;ratioP1;P1;durP2;ratioP2;P2;SDS_P1;SDS_P2;PMS_P1;PMS_P2;Temp;Humidity;BMP_temperature;BMP_pressure;BME280_temperature;BME280_humidity;BME280_pressure;Samples;Min_cycle;Max_cycle;Signal;HPM_P1;HPM_P2
2023/01/17 00:17:48;;;;;;;5.03;2.73;;;-1.90;99.90;;;;;;20909787;28;20371;-60
2023/01/17 01:39:43;;;;;;;14.57;6.10;;;-3.40;99.90;;;;;;20886177;28;20090;-59
2023/01/17 01:49:45;;;;;;;10.05;5.07;;;-3.60;99.90;;;;;;20902763;28;20413;-59
2023/01/17 01:59:57;;;;;;;10.60;5.13;;;-3.70;99.90;;;;;;20902686;28;20048;-59
2023/01/17 02:09:59;;;;;;;11.23;5.35;;;-3.80;99.90;;;;;;20900362;28;20087;-59
2023/01/17 02:20:23;;;;;;;12.60;6.13;;;-3.70;99.90;;;;;;20886276;28;20063;-59
2023/01/17 02:30:38;;;;;;;14.43;6.47;;;-3.80;99.90;;;;;;20916465;28;20037;-60
2023/01/17 02:40:59;;;;;;;10.52;4.78;;;-3.30;99.90;;;;;;20928549;28;20114;-59
2023/01/17 02:51:45;;;;;;;20.92;7.80;;;-3.60;99.90;;;;;;20947957;28;20105;-59
2023/01/17 03:01:57;;;;;;;2.53;0.93;;;-4.10;99.90;;;;;;20985855;28;20033;-59
2023/01/17 03:11:59;;;;;;;1.80;0.77;;;-2.40;99.90;;;;;;20896621;28;20032;-59
2023/01/17 03:22:01;;;;;;;2.60;1.15;;;-1.80;99.90;;;;;;20913928;28;20048;-60
2023/01/17 03:32:03;;;;;;;3.72;2.00;;;-2.40;99.90;;;;;;20930002;28;20024;-59
2023/01/17 03:42:04;;;;;;;5.82;2.83;;;-2.80;99.90;;;;;;20910482;28;20567;-59
2023/01/17 03:52:06;;;;;;;7.03;2.60;;;-2.70;99.90;;;;;;20942106;28;20041;-59
2023/01/17 04:02:08;;;;;;;4.10;1.75;;;-3.00;99.90;;;;;;20928981;28;20481;-60
2023/01/17 04:12:11;;;;;;;4.43;1.58;;;-3.50;99.90;;;;;;20974828;28;20478;-59
2023/01/17 04:22:12;;;;;;;5.55;1.73;;;-3.90;99.90;;;;;;20933740;28;20033;-59
2023/01/17 04:32:14;;;;;;;3.65;1.80;;;-4.30;99.90;;;;;;20890868;28;20033;-59
2023/01/17 04:42:16;;;;;;;3.63;1.70;;;-4.70;99.90;;;;;;20908227;28;20410;-59
2023/01/17 04:52:19;;;;;;;7.13;2.67;;;-4.70;99.90;;;;;;20905603;28;20091;-60
2023/01/17 05:02:21;;;;;;;5.20;2.67;;;-4.80;99.90;;;;;;20907093;28;20568;-59
2023/01/17 05:12:22;;;;;;;6.15;2.35;;;-4.80;99.90;;;;;;20905623;28;20041;-59
2023/01/17 05:22:24;;;;;;;6.05;3.03;;;-4.70;99.90;;;;;;20905156;28;20040;-59
2023/01/17 05:32:25;;;;;;;5.28;2.08;;;-4.50;99.90;;;;;;20886652;28;20044;-59
2023/01/17 05:42:27;;;;;;;4.28;2.03;;;-4.40;99.90;;;;;;20885798;28;20086;-59
2023/01/17 05:52:28;;;;;;;4.43;2.13;;;-4.30;99.90;;;;;;20914667;28;20102;-59
2023/01/17 06:02:30;;;;;;;5.28;1.77;;;-4.00;99.90;;;;;;20907292;28;20037;-60
2023/01/17 06:12:31;;;;;;;3.40;1.50;;;-3.80;99.90;;;;;;20881490;28;20037;-59
2023/01/17 06:22:34;;;;;;;4.07;1.67;;;-3.60;99.90;;;;;;20937340;28;20500;-59
2023/01/17 06:32:35;;;;;;;6.72;2.70;;;-3.30;99.90;;;;;;20905875;28;20047;-60
2023/01/17 06:42:37;;;;;;;6.93;3.35;;;-3.00;99.90;;;;;;20900699;28;20071;-59
2023/01/17 06:52:40;;;;;;;6.25;2.70;;;-2.80;99.90;;;;;;20901085;28;20025;-60
2023/01/17 07:02:41;;;;;;;7.75;2.85;;;-2.50;99.90;;;;;;20902829;28;20513;-59
2023/01/17 07:12:43;;;;;;;5.55;2.67;;;-2.00;99.90;;;;;;20987963;28;20032;-60
2023/01/17 07:22:45;;;;;;;5.15;2.63;;;-1.70;99.90;;;;;;20997151;28;20056;-59
2023/01/17 07:32:52;;;;;;;7.13;2.65;;;-1.70;99.90;;;;;;20977578;28;20486;-60
2023/01/17 07:43:12;;;;;;;5.05;2.50;;;-1.60;99.90;;;;;;20911535;28;20551;-60
2023/01/17 07:53:14;;;;;;;3.47;1.83;;;-1.50;99.90;;;;;;20896194;28;20437;-59
2023/01/17 08:03:17;;;;;;;5.45;2.60;;;-1.50;99.90;;;;;;20936314;28;20045;-60
2023/01/17 08:13:20;;;;;;;6.28;2.03;;;-1.40;99.90;;;;;;20994465;28;20478;-60
2023/01/17 08:23:22;;;;;;;4.03;2.00;;;-1.40;99.90;;;;;;20974225;28;20032;-59
2023/01/17 08:33:23;;;;;;;4.75;2.20;;;-1.20;99.90;;;;;;20953999;28;20095;-59
2023/01/17 08:43:25;;;;;;;4.25;1.95;;;-1.10;99.90;;;;;;20907654;28;20037;-59
2023/01/17 08:53:27;;;;;;;3.03;1.63;;;-0.60;99.90;;;;;;20975360;28;20037;-59
2023/01/17 09:03:30;;;;;;;5.38;1.88;;;-0.30;99.90;;;;;;20971883;28;20049;-60
2023/01/17 09:13:31;;;;;;;3.80;2.10;;;-0.20;99.90;;;;;;20913244;28;20056;-59
2023/01/17 09:23:33;;;;;;;3.40;1.95;;;-0.30;99.90;;;;;;20975326;28;20032;-60
2023/01/17 09:33:35;;;;;;;3.53;1.63;;;-0.20;99.90;;;;;;20986111;28;20058;-59
2023/01/17 09:43:45;;;;;;;2.22;1.55;;;0.30;99.90;;;;;;20907596;28;20039;-59
2023/01/17 09:53:47;;;;;;;3.90;2.07;;;0.60;99.90;;;;;;20904069;28;20091;-60
2023/01/17 10:03:54;;;;;;;4.28;2.35;;;1.00;99.90;;;;;;20902324;28;20111;-60
2023/01/17 10:14:16;;;;;;;6.72;3.22;;;0.90;99.90;;;;;;20883836;28;20033;-59
2023/01/17 10:24:42;;;;;;;5.03;2.88;;;0.30;99.90;;;;;;20883859;28;20481;-60
2023/01/17 10:34:51;;;;;;;4.60;2.28;;;0.30;99.90;;;;;;20883379;28;20040;-59
2023/01/17 10:45:02;;;;;;;4.40;2.00;;;-0.10;99.90;;;;;;20902298;28;20536;-60
2023/01/17 10:55:07;;;;;;;3.17;1.67;;;-0.40;99.90;;;;;;20979441;28;20036;-60
2023/01/17 11:05:41;;;;;;;5.75;1.92;;;-0.50;99.90;;;;;;20992891;28;20516;-59
2023/01/17 11:15:48;;;;;;;3.00;1.42;;;-0.40;99.90;;;;;;20913193;28;20068;-58
2023/01/17 11:25:54;;;;;;;3.13;1.48;;;0.00;99.90;;;;;;20897929;28;20041;-60
2023/01/17 11:35:55;;;;;;;2.50;1.38;;;-0.20;99.90;;;;;;20911584;28;20115;-58
2023/01/17 11:46:03;;;;;;;1.80;1.00;;;-0.30;99.90;;;;;;20912347;28;20087;-61
2023/01/17 11:56:17;;;;;;;2.40;1.20;;;-0.20;99.90;;;;;;20911208;28;20488;-60
2023/01/17 12:06:36;;;;;;;2.00;1.10;;;0.30;99.90;;;;;;20961824;28;20036;-61
2023/01/17 12:16:38;;;;;;;2.50;0.80;;;0.20;99.90;;;;;;20975162;28;20045;-58
2023/01/17 12:27:15;;;;;;;1.20;0.70;;;0.30;99.90;;;;;;20992420;28;20029;-60
2023/01/17 12:37:30;;;;;;;1.25;0.60;;;0.20;99.90;;;;;;20938268;28;20041;-60
2023/01/17 12:47:36;;;;;;;1.40;0.60;;;-0.40;99.90;;;;;;20927499;28;20032;-60
2023/01/17 12:57:43;;;;;;;0.60;0.40;;;-0.50;99.90;;;;;;20989990;28;20378;-60
2023/01/17 13:07:59;;;;;;;1.38;0.50;;;-0.20;99.90;;;;;;20960668;28;20486;-60
2023/01/17 13:18:24;;;;;;;0.70;0.30;;;-0.10;99.90;;;;;;20929708;28;20571;-60
2023/01/17 13:28:32;;;;;;;0.73;0.22;;;0.10;99.90;;;;;;20987399;28;20037;-61
2023/01/17 13:38:53;;;;;;;0.30;0.10;;;0.00;99.90;;;;;;20949148;28;20048;-60
2023/01/17 13:49:33;;;;;;;0.20;0.10;;;0.30;99.90;;;;;;20934041;28;20052;-61
2023/01/17 13:59:35;;;;;;;0.45;0.17;;;0.30;99.90;;;;;;20902962;28;20033;-62
2023/01/17 14:09:41;;;;;;;0.50;0.22;;;0.10;99.90;;;;;;20902880;28;20029;-61
2023/01/17 14:19:45;;;;;;;0.68;0.20;;;-0.10;99.90;;;;;;20904814;28;20043;-61
2023/01/17 14:29:59;;;;;;;0.40;0.20;;;-0.20;99.90;;;;;;20919196;28;20032;-61
2023/01/17 14:40:01;;;;;;;0.20;0.10;;;-0.50;99.90;;;;;;20919136;28;20053;-61
2023/01/17 14:50:39;;;;;;;0.30;0.10;;;-0.60;99.90;;;;;;20917907;28;20040;-61
2023/01/17 15:00:41;;;;;;;0.40;0.13;;;-0.60;99.90;;;;;;20920490;28;20045;-61
2023/01/17 15:10:51;;;;;;;1.17;0.20;;;-0.60;99.90;;;;;;20946569;28;20041;-58
2023/01/17 15:20:58;;;;;;;1.17;0.28;;;-0.70;99.90;;;;;;20962878;28;20032;-59
2023/01/17 15:31:03;;;;;;;0.43;0.20;;;-0.70;99.90;;;;;;20995430;28;20028;-58
2023/01/17 15:41:11;;;;;;;0.60;0.20;;;-0.90;99.90;;;;;;20938149;28;20033;-60
2023/01/17 15:51:13;;;;;;;0.50;0.10;;;-1.00;99.90;;;;;;20944635;28;20386;-58
2023/01/17 16:01:16;;;;;;;0.75;0.20;;;-1.00;99.90;;;;;;20918055;28;20040;-61
2023/01/17 16:11:19;;;;;;;0.40;0.10;;;-1.00;99.90;;;;;;20950425;28;20033;-60
2023/01/17 16:21:24;;;;;;;1.17;0.10;;;-1.00;99.90;;;;;;20962393;28;20393;-60
2023/01/17 16:31:26;;;;;;;0.30;0.17;;;-1.00;99.90;;;;;;20939807;28;20041;-61
2023/01/17 16:41:28;;;;;;;1.70;0.80;;;-1.00;99.90;;;;;;20909435;28;20048;-61
2023/01/17 16:51:30;;;;;;;25.50;1.45;;;-1.00;99.90;;;;;;20961831;28;20025;-61
2023/01/17 17:01:31;;;;;;;1.33;0.60;;;-1.00;99.90;;;;;;20945857;28;20078;-58
2023/01/17 17:11:33;;;;;;;10.45;0.98;;;-1.10;99.90;;;;;;20989197;28;20102;-60
2023/01/17 17:21:36;;;;;;;0.93;0.40;;;-1.10;99.90;;;;;;20988779;28;20037;-61
2023/01/17 17:31:41;;;;;;;0.50;0.40;;;-1.10;99.90;;;;;;20978456;28;20029;-60
2023/01/17 17:41:47;;;;;;;0.52;0.30;;;-1.20;99.90;;;;;;20887479;28;20056;-59
2023/01/17 17:51:49;;;;;;;0.63;0.50;;;-1.20;99.90;;;;;;20938940;28;20071;-60
2023/01/17 18:01:51;;;;;;;1.10;0.60;;;-1.30;99.90;;;;;;20917932;28;20121;-60
2023/01/17 18:11:53;;;;;;;0.20;0.00;;;-1.30;99.90;;;;;;20985809;28;20037;-58
2023/01/17 18:21:55;;;;;;;2.88;1.42;;;-1.30;99.90;;;;;;20968226;28;20032;-60
2023/01/17 18:31:56;;;;;;;0.75;0.30;;;-1.10;99.90;;;;;;20950807;28;20045;-60
2023/01/17 18:41:59;;;;;;;2.28;1.40;;;-1.20;99.90;;;;;;20921245;28;20025;-60
2023/01/17 18:52:01;;;;;;;1.95;1.10;;;-1.20;99.90;;;;;;20959257;28;20446;-60
2023/01/17 19:02:03;;;;;;;0.68;0.50;;;-1.20;99.90;;;;;;20970279;28;20049;-60
2023/01/17 19:12:05;;;;;;;0.20;0.00;;;-1.20;99.90;;;;;;20893847;28;20366;-60
2023/01/17 19:22:07;;;;;;;0.17;0.00;;;-1.10;99.90;;;;;;20973239;28;20044;-57
2023/01/17 19:32:10;;;;;;;0.10;0.00;;;-0.80;99.90;;;;;;20997744;28;20091;-58
2023/01/17 19:42:14;;;;;;;11.48;1.52;;;-0.70;99.90;;;;;;20912848;28;20036;-60
2023/01/17 19:52:16;;;;;;;1.98;1.30;;;-0.60;99.90;;;;;;20914671;28;20107;-58
2023/01/17 20:02:18;;;;;;;0.88;0.40;;;-0.80;99.90;;;;;;20895069;28;20095;-60
2023/01/17 20:12:20;;;;;;;0.65;0.20;;;-1.00;99.90;;;;;;20894282;28;20045;-58
2023/01/17 20:22:22;;;;;;;0.00;0.00;;;-1.00;99.90;;;;;;20944596;28;20481;-58
2023/01/17 20:32:25;;;;;;;0.40;0.10;;;-0.80;99.90;;;;;;20940176;28;20032;-60
2023/01/17 20:42:27;;;;;;;24.55;1.10;;;-0.70;99.90;;;;;;20908977;28;20098;-60
2023/01/17 20:52:29;;;;;;;13.30;1.30;;;-0.70;99.90;;;;;;20907660;28;20037;-60
2023/01/17 21:02:31;;;;;;;1.10;0.70;;;-0.80;99.90;;;;;;20907496;28;20049;-60
2023/01/17 21:12:33;;;;;;;0.20;0.10;;;-0.90;99.90;;;;;;20905766;28;20086;-60
2023/01/17 21:22:35;;;;;;;0.52;0.10;;;-0.90;99.90;;;;;;20906164;28;20053;-60
2023/01/17 21:32:37;;;;;;;0.20;0.15;;;-0.80;99.90;;;;;;20903832;28;20041;-59
2023/01/17 21:42:38;;;;;;;0.30;0.08;;;-0.80;99.90;;;;;;20904911;28;20021;-58
2023/01/17 21:52:40;;;;;;;0.00;0.00;;;-0.80;99.90;;;;;;20932542;28;20033;-60
2023/01/17 22:02:46;;;;;;;16.00;0.57;;;-0.80;99.90;;;;;;20924752;28;20059;-60
2023/01/17 22:12:50;;;;;;;0.25;0.17;;;-1.00;99.90;;;;;;20986207;28;20044;-60
2023/01/17 22:22:52;;;;;;;0.20;0.10;;;-1.00;99.90;;;;;;20985076;28;20048;-57
2023/01/17 22:32:57;;;;;;;0.15;0.10;;;-1.10;99.90;;;;;;20950315;28;20059;-58
2023/01/17 22:42:59;;;;;;;1.13;0.50;;;-1.60;99.90;;;;;;20916623;28;20059;-61
2023/01/17 22:53:01;;;;;;;0.95;0.30;;;-2.00;99.90;;;;;;20983041;28;20036;-59
2023/01/17 23:03:04;;;;;;;0.68;0.30;;;-2.60;99.90;;;;;;20956881;28;20049;-59
2023/01/17 23:13:09;;;;;;;0.63;0.30;;;-2.80;99.90;;;;;;20897230;28;20103;-58
2023/01/17 23:23:11;;;;;;;247.98;10.40;;;-2.50;99.90;;;;;;20915854;28;20490;-58
2023/01/17 23:33:14;;;;;;;478.20;16.13;;;-2.20;99.90;;;;;;20920765;28;20367;-58
2023/01/17 23:43:22;;;;;;;1.77;0.98;;;-1.90;99.90;;;;;;20920234;28;20386;-60
2023/01/17 23:53:25;;;;;;;0.30;0.20;;;-1.80;99.90;;;;;;20912538;28;20064;-60
